sensor_id;sensor_type;location;lat;lon;timestamp;P1;durP1;ratioP1;P2;durP2;ratioP2
14611;SDS011;7392;52.078;11.650;2023-02-01T00:00:37;14.47;;;3.17;;
14611;SDS011;7392;52.078;11.650;2023-02-01T00:03:05;13.93;;;3.27;;
14611;SDS011;7392;52.078;11.650;2023-02-01T00:05:34;12.87;;;3.30;;
14611;SDS011;7392;52.078;11.650;2023-02-01T00:08:02;13.13;;;3.20;;
14611;SDS011;7392;52.078;11.650;2023-02-01T00:10:30;12.60;;;3.83;;
14611;SDS011;7392;52.078;11.650;2023-02-01T00:12:58;15.47;;;3.70;;
14611;SDS011;7392;52.078;11.650;2023-02-01T00:15:27;13.80;;;3.30;;
14611;SDS011;7392;52.078;11.650;2023-02-01T00:17:54;9.67;;;2.80;;
14611;SDS011;7392;52.078;11.650;2023-02-01T00:20:22;11.10;;;3.10;;
14611;SDS011;7392;52.078;11.650;2023-02-01T00:22:49;15.07;;;3.60;;
14611;SDS011;7392;52.078;11.650;2023-02-01T00:25:17;18.73;;;3.87;;
14611;SDS011;7392;52.078;11.650;2023-02-01T00:27:48;18.67;;;3.80;;
14611;SDS011;7392;52.078;11.650;2023-02-01T00:30:16;17.10;;;3.67;;
14611;SDS011;7392;52.078;11.650;2023-02-01T00:32:47;15.43;;;3.47;;
14611;SDS011;7392;52.078;11.650;2023-02-01T00:35:14;10.67;;;3.40;;
14611;SDS011;7392;52.078;11.650;2023-02-01T00:37:42;12.27;;;3.03;;
14611;SDS011;7392;52.078;11.650;2023-02-01T00:40:10;14.73;;;4.20;;
14611;SDS011;7392;52.078;11.650;2023-02-01T00:42:38;12.23;;;3.43;;
14611;SDS011;7392;52.078;11.650;2023-02-01T00:45:06;12.20;;;2.97;;
14611;SDS011;7392;52.078;11.650;2023-02-01T00:47:35;13.30;;;3.43;;
14611;SDS011;7392;52.078;11.650;2023-02-01T00:50:04;15.20;;;3.23;;
14611;SDS011;7392;52.078;11.650;2023-02-01T00:52:32;14.07;;;3.37;;
14611;SDS011;7392;52.078;11.650;2023-02-01T00:55:00;14.80;;;3.60;;
14611;SDS011;7392;52.078;11.650;2023-02-01T00:57:27;15.20;;;3.50;;
14611;SDS011;7392;52.078;11.650;2023-02-01T00:59:55;14.43;;;3.13;;
14611;SDS011;7392;52.078;11.650;2023-02-01T01:02:23;13.23;;;4.27;;
14611;SDS011;7392;52.078;11.650;2023-02-01T01:04:53;12.70;;;3.17;;
14611;SDS011;7392;52.078;11.650;2023-02-01T01:07:22;15.90;;;3.33;;
14611;SDS011;7392;52.078;11.650;2023-02-01T01:09:50;9.77;;;3.27;;
14611;SDS011;7392;52.078;11.650;2023-02-01T01:12:17;16.63;;;3.70;;
14611;SDS011;7392;52.078;11.650;2023-02-01T01:14:46;11.50;;;3.70;;
14611;SDS011;7392;52.078;11.650;2023-02-01T01:17:14;11.57;;;3.47;;
14611;SDS011;7392;52.078;11.650;2023-02-01T01:19:41;12.33;;;3.23;;
14611;SDS011;7392;52.078;11.650;2023-02-01T01:22:09;11.97;;;2.87;;
14611;SDS011;7392;52.078;11.650;2023-02-01T01:24:38;15.13;;;3.20;;
14611;SDS011;7392;52.078;11.650;2023-02-01T01:27:06;16.33;;;3.53;;
14611;SDS011;7392;52.078;11.650;2023-02-01T01:29:34;13.67;;;3.13;;
14611;SDS011;7392;52.078;11.650;2023-02-01T01:32:01;18.67;;;3.93;;
14611;SDS011;7392;52.078;11.650;2023-02-01T01:34:29;12.73;;;3.40;;
14611;SDS011;7392;52.078;11.650;2023-02-01T01:36:57;13.23;;;3.33;;
14611;SDS011;7392;52.078;11.650;2023-02-01T01:39:25;14.47;;;3.30;;
14611;SDS011;7392;52.078;11.650;2023-02-01T01:41:54;18.40;;;4.03;;
14611;SDS011;7392;52.078;11.650;2023-02-01T01:47:26;13.70;;;3.70;;
14611;SDS011;7392;52.078;11.650;2023-02-01T01:49:58;10.80;;;3.83;;
14611;SDS011;7392;52.078;11.650;2023-02-01T01:52:26;9.00;;;3.00;;
14611;SDS011;7392;52.078;11.650;2023-02-01T01:54:55;13.50;;;3.43;;
14611;SDS011;7392;52.078;11.650;2023-02-01T01:57:26;17.80;;;4.17;;
14611;SDS011;7392;52.078;11.650;2023-02-01T02:00:00;16.07;;;3.47;;
14611;SDS011;7392;52.078;11.650;2023-02-01T02:02:39;9.60;;;2.90;;
14611;SDS011;7392;52.078;11.650;2023-02-01T02:05:09;14.47;;;3.87;;
14611;SDS011;7392;52.078;11.650;2023-02-01T02:07:40;14.23;;;4.13;;
14611;SDS011;7392;52.078;11.650;2023-02-01T02:10:11;11.17;;;2.73;;
14611;SDS011;7392;52.078;11.650;2023-02-01T02:12:43;13.03;;;3.00;;
14611;SDS011;7392;52.078;11.650;2023-02-01T02:15:15;12.77;;;3.67;;
14611;SDS011;7392;52.078;11.650;2023-02-01T02:17:44;12.67;;;3.07;;
14611;SDS011;7392;52.078;11.650;2023-02-01T02:20:33;14.57;;;3.20;;
14611;SDS011;7392;52.078;11.650;2023-02-01T02:23:34;10.83;;;3.27;;
14611;SDS011;7392;52.078;11.650;2023-02-01T02:26:29;12.07;;;3.23;;
14611;SDS011;7392;52.078;11.650;2023-02-01T02:32:21;14.67;;;3.57;;
14611;SDS011;7392;52.078;11.650;2023-02-01T02:35:07;15.03;;;3.80;;
14611;SDS011;7392;52.078;11.650;2023-02-01T02:37:45;17.00;;;3.60;;
14611;SDS011;7392;52.078;11.650;2023-02-01T02:40:22;16.97;;;3.90;;
14611;SDS011;7392;52.078;11.650;2023-02-01T02:42:59;12.77;;;3.60;;
14611;SDS011;7392;52.078;11.650;2023-02-01T02:45:55;11.90;;;3.13;;
14611;SDS011;7392;52.078;11.650;2023-02-01T02:48:59;14.17;;;3.80;;
14611;SDS011;7392;52.078;11.650;2023-02-01T02:51:34;15.97;;;3.37;;
14611;SDS011;7392;52.078;11.650;2023-02-01T02:54:23;17.20;;;3.43;;
14611;SDS011;7392;52.078;11.650;2023-02-01T02:57:15;16.23;;;4.07;;
14611;SDS011;7392;52.078;11.650;2023-02-01T03:00:06;13.67;;;3.40;;
14611;SDS011;7392;52.078;11.650;2023-02-01T03:02:54;17.40;;;3.80;;
14611;SDS011;7392;52.078;11.650;2023-02-01T03:05:40;18.37;;;3.93;;
14611;SDS011;7392;52.078;11.650;2023-02-01T03:08:13;15.17;;;4.07;;
14611;SDS011;7392;52.078;11.650;2023-02-01T03:10:43;14.70;;;3.70;;
14611;SDS011;7392;52.078;11.650;2023-02-01T03:13:17;13.67;;;3.90;;
14611;SDS011;7392;52.078;11.650;2023-02-01T03:15:57;15.23;;;3.70;;
14611;SDS011;7392;52.078;11.650;2023-02-01T03:18:31;18.40;;;4.37;;
14611;SDS011;7392;52.078;11.650;2023-02-01T03:21:02;17.00;;;3.60;;
14611;SDS011;7392;52.078;11.650;2023-02-01T03:23:37;14.53;;;3.73;;
14611;SDS011;7392;52.078;11.650;2023-02-01T03:26:05;16.00;;;4.03;;
14611;SDS011;7392;52.078;11.650;2023-02-01T03:28:37;20.37;;;4.07;;
14611;SDS011;7392;52.078;11.650;2023-02-01T03:31:11;18.60;;;3.90;;
14611;SDS011;7392;52.078;11.650;2023-02-01T03:33:40;17.13;;;3.70;;
14611;SDS011;7392;52.078;11.650;2023-02-01T03:36:18;18.47;;;4.00;;
14611;SDS011;7392;52.078;11.650;2023-02-01T03:38:57;20.47;;;4.37;;
14611;SDS011;7392;52.078;11.650;2023-02-01T03:41:33;12.50;;;3.63;;
14611;SDS011;7392;52.078;11.650;2023-02-01T03:44:06;21.33;;;4.63;;
14611;SDS011;7392;52.078;11.650;2023-02-01T03:46:42;16.77;;;3.53;;
14611;SDS011;7392;52.078;11.650;2023-02-01T03:49:15;15.77;;;4.30;;
14611;SDS011;7392;52.078;11.650;2023-02-01T03:51:46;13.37;;;3.50;;
14611;SDS011;7392;52.078;11.650;2023-02-01T03:54:18;13.13;;;3.73;;
14611;SDS011;7392;52.078;11.650;2023-02-01T03:56:47;16.33;;;3.93;;
14611;SDS011;7392;52.078;11.650;2023-02-01T03:59:17;19.80;;;3.90;;
14611;SDS011;7392;52.078;11.650;2023-02-01T04:01:45;15.27;;;3.77;;
14611;SDS011;7392;52.078;11.650;2023-02-01T04:04:13;19.13;;;4.37;;
14611;SDS011;7392;52.078;11.650;2023-02-01T04:06:49;10.93;;;2.87;;
14611;SDS011;7392;52.078;11.650;2023-02-01T04:09:19;14.57;;;3.97;;
14611;SDS011;7392;52.078;11.650;2023-02-01T04:11:47;14.70;;;3.47;;
14611;SDS011;7392;52.078;11.650;2023-02-01T04:14:15;15.27;;;3.47;;
14611;SDS011;7392;52.078;11.650;2023-02-01T04:16:42;15.97;;;3.83;;
14611;SDS011;7392;52.078;11.650;2023-02-01T04:19:10;16.33;;;3.70;;
14611;SDS011;7392;52.078;11.650;2023-02-01T04:21:38;15.40;;;3.50;;
14611;SDS011;7392;52.078;11.650;2023-02-01T04:24:06;15.27;;;3.53;;
14611;SDS011;7392;52.078;11.650;2023-02-01T04:26:36;15.40;;;3.47;;
14611;SDS011;7392;52.078;11.650;2023-02-01T04:29:03;14.50;;;3.67;;
14611;SDS011;7392;52.078;11.650;2023-02-01T04:31:31;12.63;;;3.87;;
14611;SDS011;7392;52.078;11.650;2023-02-01T04:34:00;17.27;;;4.17;;
14611;SDS011;7392;52.078;11.650;2023-02-01T04:36:27;16.37;;;3.80;;
14611;SDS011;7392;52.078;11.650;2023-02-01T04:38:55;19.00;;;4.13;;
14611;SDS011;7392;52.078;11.650;2023-02-01T04:41:23;16.97;;;4.17;;
14611;SDS011;7392;52.078;11.650;2023-02-01T04:43:52;17.90;;;3.93;;
14611;SDS011;7392;52.078;11.650;2023-02-01T04:46:19;18.83;;;4.00;;
14611;SDS011;7392;52.078;11.650;2023-02-01T04:48:47;15.33;;;3.30;;
14611;SDS011;7392;52.078;11.650;2023-02-01T04:51:15;17.00;;;4.57;;
14611;SDS011;7392;52.078;11.650;2023-02-01T04:53:44;13.03;;;3.73;;
14611;SDS011;7392;52.078;11.650;2023-02-01T04:56:11;14.50;;;3.60;;
14611;SDS011;7392;52.078;11.650;2023-02-01T04:58:39;15.57;;;4.03;;
14611;SDS011;7392;52.078;11.650;2023-02-01T05:01:08;16.00;;;3.60;;
14611;SDS011;7392;52.078;11.650;2023-02-01T05:03:36;13.83;;;3.80;;
14611;SDS011;7392;52.078;11.650;2023-02-01T05:06:03;17.37;;;3.93;;
14611;SDS011;7392;52.078;11.650;2023-02-01T05:08:32;13.80;;;3.77;;
14611;SDS011;7392;52.078;11.650;2023-02-01T05:11:02;15.83;;;3.73;;
14611;SDS011;7392;52.078;11.650;2023-02-01T05:13:30;21.87;;;4.20;;
14611;SDS011;7392;52.078;11.650;2023-02-01T05:16:16;15.17;;;3.67;;
14611;SDS011;7392;52.078;11.650;2023-02-01T05:18:44;12.50;;;3.70;;
14611;SDS011;7392;52.078;11.650;2023-02-01T05:21:12;14.47;;;4.00;;
14611;SDS011;7392;52.078;11.650;2023-02-01T05:23:40;15.90;;;4.07;;
14611;SDS011;7392;52.078;11.650;2023-02-01T05:26:21;17.10;;;4.23;;
14611;SDS011;7392;52.078;11.650;2023-02-01T05:28:49;13.47;;;3.57;;
14611;SDS011;7392;52.078;11.650;2023-02-01T05:31:18;18.90;;;4.30;;
14611;SDS011;7392;52.078;11.650;2023-02-01T05:33:46;12.63;;;4.27;;
14611;SDS011;7392;52.078;11.650;2023-02-01T05:36:14;13.87;;;3.83;;
14611;SDS011;7392;52.078;11.650;2023-02-01T05:38:42;14.47;;;4.30;;
14611;SDS011;7392;52.078;11.650;2023-02-01T05:41:12;13.23;;;3.50;;
14611;SDS011;7392;52.078;11.650;2023-02-01T05:43:40;18.30;;;3.53;;
14611;SDS011;7392;52.078;11.650;2023-02-01T05:46:08;13.00;;;3.67;;
14611;SDS011;7392;52.078;11.650;2023-02-01T05:48:38;15.07;;;4.27;;
14611;SDS011;7392;52.078;11.650;2023-02-01T05:51:05;18.77;;;4.00;;
14611;SDS011;7392;52.078;11.650;2023-02-01T05:53:33;12.10;;;4.60;;
14611;SDS011;7392;52.078;11.650;2023-02-01T05:56:01;14.70;;;3.97;;
14611;SDS011;7392;52.078;11.650;2023-02-01T05:58:29;10.90;;;4.07;;
14611;SDS011;7392;52.078;11.650;2023-02-01T06:00:58;12.53;;;3.50;;
14611;SDS011;7392;52.078;11.650;2023-02-01T06:03:26;18.17;;;3.80;;
14611;SDS011;7392;52.078;11.650;2023-02-01T06:05:56;15.07;;;3.67;;
14611;SDS011;7392;52.078;11.650;2023-02-01T06:08:24;25.17;;;4.57;;
14611;SDS011;7392;52.078;11.650;2023-02-01T06:10:56;18.43;;;4.40;;
14611;SDS011;7392;52.078;11.650;2023-02-01T06:13:25;14.03;;;3.37;;
14611;SDS011;7392;52.078;11.650;2023-02-01T06:15:52;14.77;;;3.73;;
14611;SDS011;7392;52.078;11.650;2023-02-01T06:18:22;8.83;;;3.57;;
14611;SDS011;7392;52.078;11.650;2023-02-01T06:20:53;13.03;;;3.43;;
14611;SDS011;7392;52.078;11.650;2023-02-01T06:23:22;15.47;;;4.20;;
14611;SDS011;7392;52.078;11.650;2023-02-01T06:25:51;22.07;;;4.53;;
14611;SDS011;7392;52.078;11.650;2023-02-01T06:28:19;13.80;;;4.30;;
14611;SDS011;7392;52.078;11.650;2023-02-01T06:30:46;18.27;;;4.57;;
14611;SDS011;7392;52.078;11.650;2023-02-01T06:33:14;15.53;;;3.83;;
14611;SDS011;7392;52.078;11.650;2023-02-01T06:35:42;15.30;;;3.67;;
14611;SDS011;7392;52.078;11.650;2023-02-01T06:38:10;13.97;;;4.07;;
14611;SDS011;7392;52.078;11.650;2023-02-01T06:40:39;17.27;;;3.97;;
14611;SDS011;7392;52.078;11.650;2023-02-01T06:43:08;14.63;;;4.20;;
14611;SDS011;7392;52.078;11.650;2023-02-01T06:45:36;18.10;;;4.60;;
14611;SDS011;7392;52.078;11.650;2023-02-01T06:48:04;9.70;;;3.37;;
14611;SDS011;7392;52.078;11.650;2023-02-01T06:50:32;20.37;;;4.03;;
14611;SDS011;7392;52.078;11.650;2023-02-01T06:53:01;18.47;;;4.53;;
14611;SDS011;7392;52.078;11.650;2023-02-01T06:55:29;14.63;;;3.80;;
14611;SDS011;7392;52.078;11.650;2023-02-01T06:57:58;14.13;;;3.67;;
14611;SDS011;7392;52.078;11.650;2023-02-01T07:00:27;12.47;;;3.80;;
14611;SDS011;7392;52.078;11.650;2023-02-01T07:02:57;16.10;;;3.97;;
14611;SDS011;7392;52.078;11.650;2023-02-01T07:05:24;17.30;;;4.00;;
14611;SDS011;7392;52.078;11.650;2023-02-01T07:07:52;13.10;;;3.87;;
14611;SDS011;7392;52.078;11.650;2023-02-01T07:10:20;11.27;;;3.63;;
14611;SDS011;7392;52.078;11.650;2023-02-01T07:12:48;15.07;;;3.87;;
14611;SDS011;7392;52.078;11.650;2023-02-01T07:15:17;12.80;;;3.80;;
14611;SDS011;7392;52.078;11.650;2023-02-01T07:17:44;14.87;;;4.03;;
14611;SDS011;7392;52.078;11.650;2023-02-01T07:20:13;11.20;;;3.60;;
14611;SDS011;7392;52.078;11.650;2023-02-01T07:22:41;11.23;;;3.07;;
14611;SDS011;7392;52.078;11.650;2023-02-01T07:25:09;10.17;;;3.07;;
14611;SDS011;7392;52.078;11.650;2023-02-01T07:27:36;16.13;;;3.47;;
14611;SDS011;7392;52.078;11.650;2023-02-01T07:30:05;13.47;;;3.80;;
14611;SDS011;7392;52.078;11.650;2023-02-01T07:32:35;16.90;;;3.73;;
14611;SDS011;7392;52.078;11.650;2023-02-01T07:35:02;14.20;;;3.80;;
14611;SDS011;7392;52.078;11.650;2023-02-01T07:37:30;14.10;;;3.37;;
14611;SDS011;7392;52.078;11.650;2023-02-01T07:39:58;15.23;;;3.97;;
14611;SDS011;7392;52.078;11.650;2023-02-01T07:42:26;11.50;;;2.93;;
14611;SDS011;7392;52.078;11.650;2023-02-01T07:44:53;9.87;;;2.83;;
14611;SDS011;7392;52.078;11.650;2023-02-01T07:47:21;14.73;;;3.43;;
14611;SDS011;7392;52.078;11.650;2023-02-01T07:49:50;11.70;;;3.30;;
14611;SDS011;7392;52.078;11.650;2023-02-01T07:52:17;13.03;;;3.23;;
14611;SDS011;7392;52.078;11.650;2023-02-01T07:54:45;8.83;;;2.90;;
14611;SDS011;7392;52.078;11.650;2023-02-01T07:57:13;11.43;;;3.50;;
14611;SDS011;7392;52.078;11.650;2023-02-01T07:59:40;11.27;;;3.07;;
14611;SDS011;7392;52.078;11.650;2023-02-01T08:02:37;9.87;;;3.00;;
14611;SDS011;7392;52.078;11.650;2023-02-01T08:05:07;8.93;;;3.10;;
14611;SDS011;7392;52.078;11.650;2023-02-01T08:07:35;12.60;;;3.00;;
14611;SDS011;7392;52.078;11.650;2023-02-01T08:10:03;6.57;;;2.67;;
14611;SDS011;7392;52.078;11.650;2023-02-01T08:12:36;10.87;;;2.47;;
14611;SDS011;7392;52.078;11.650;2023-02-01T08:15:05;10.27;;;2.53;;
14611;SDS011;7392;52.078;11.650;2023-02-01T08:17:33;8.13;;;2.30;;
14611;SDS011;7392;52.078;11.650;2023-02-01T08:20:01;6.60;;;2.50;;
14611;SDS011;7392;52.078;11.650;2023-02-01T08:22:32;7.20;;;2.53;;
14611;SDS011;7392;52.078;11.650;2023-02-01T08:25:00;9.43;;;2.90;;
14611;SDS011;7392;52.078;11.650;2023-02-01T08:27:28;6.20;;;2.50;;
14611;SDS011;7392;52.078;11.650;2023-02-01T08:29:56;6.20;;;2.80;;
14611;SDS011;7392;52.078;11.650;2023-02-01T08:32:24;8.30;;;2.27;;
14611;SDS011;7392;52.078;11.650;2023-02-01T08:34:52;6.37;;;2.30;;
14611;SDS011;7392;52.078;11.650;2023-02-01T08:37:20;6.60;;;2.37;;
14611;SDS011;7392;52.078;11.650;2023-02-01T08:39:49;6.20;;;2.47;;
14611;SDS011;7392;52.078;11.650;2023-02-01T08:42:17;11.30;;;2.70;;
14611;SDS011;7392;52.078;11.650;2023-02-01T08:45:02;6.47;;;2.77;;
14611;SDS011;7392;52.078;11.650;2023-02-01T08:47:31;6.73;;;2.53;;
14611;SDS011;7392;52.078;11.650;2023-02-01T08:49:58;6.97;;;2.47;;
14611;SDS011;7392;52.078;11.650;2023-02-01T08:52:26;8.70;;;2.80;;
14611;SDS011;7392;52.078;11.650;2023-02-01T08:54:55;11.27;;;3.47;;
14611;SDS011;7392;52.078;11.650;2023-02-01T08:57:23;7.63;;;2.70;;
14611;SDS011;7392;52.078;11.650;2023-02-01T08:59:50;9.17;;;2.67;;
14611;SDS011;7392;52.078;11.650;2023-02-01T09:02:18;9.03;;;2.70;;
14611;SDS011;7392;52.078;11.650;2023-02-01T09:04:46;6.43;;;2.47;;
14611;SDS011;7392;52.078;11.650;2023-02-01T09:07:14;5.13;;;2.30;;
14611;SDS011;7392;52.078;11.650;2023-02-01T09:09:43;6.10;;;2.37;;
14611;SDS011;7392;52.078;11.650;2023-02-01T09:12:12;12.67;;;2.80;;
14611;SDS011;7392;52.078;11.650;2023-02-01T09:14:40;7.70;;;2.70;;
14611;SDS011;7392;52.078;11.650;2023-02-01T09:17:07;8.13;;;2.57;;
14611;SDS011;7392;52.078;11.650;2023-02-01T09:19:35;6.40;;;2.50;;
14611;SDS011;7392;52.078;11.650;2023-02-01T09:22:03;9.80;;;2.90;;
14611;SDS011;7392;52.078;11.650;2023-02-01T09:24:30;10.47;;;2.77;;
14611;SDS011;7392;52.078;11.650;2023-02-01T09:26:58;8.50;;;2.80;;
14611;SDS011;7392;52.078;11.650;2023-02-01T09:29:27;8.87;;;2.57;;
14611;SDS011;7392;52.078;11.650;2023-02-01T09:31:55;8.30;;;2.63;;
14611;SDS011;7392;52.078;11.650;2023-02-01T09:34:29;8.30;;;2.17;;
14611;SDS011;7392;52.078;11.650;2023-02-01T09:36:57;7.93;;;2.10;;
14611;SDS011;7392;52.078;11.650;2023-02-01T09:39:25;5.63;;;1.93;;
14611;SDS011;7392;52.078;11.650;2023-02-01T09:41:55;8.33;;;2.37;;
14611;SDS011;7392;52.078;11.650;2023-02-01T09:44:34;4.63;;;2.07;;
14611;SDS011;7392;52.078;11.650;2023-02-01T09:47:14;8.87;;;2.30;;
14611;SDS011;7392;52.078;11.650;2023-02-01T09:49:45;7.57;;;2.00;;
14611;SDS011;7392;52.078;11.650;2023-02-01T09:52:20;5.43;;;2.13;;
14611;SDS011;7392;52.078;11.650;2023-02-01T09:54:55;5.87;;;2.20;;
14611;SDS011;7392;52.078;11.650;2023-02-01T09:57:31;5.07;;;2.00;;
14611;SDS011;7392;52.078;11.650;2023-02-01T10:00:14;9.23;;;2.47;;
14611;SDS011;7392;52.078;11.650;2023-02-01T10:02:48;7.10;;;2.53;;
14611;SDS011;7392;52.078;11.650;2023-02-01T10:05:18;7.67;;;2.53;;
14611;SDS011;7392;52.078;11.650;2023-02-01T10:07:55;5.97;;;2.53;;
14611;SDS011;7392;52.078;11.650;2023-02-01T10:10:28;7.10;;;2.53;;
14611;SDS011;7392;52.078;11.650;2023-02-01T10:15:57;6.57;;;2.67;;
14611;SDS011;7392;52.078;11.650;2023-02-01T10:18:49;10.30;;;2.77;;
14611;SDS011;7392;52.078;11.650;2023-02-01T10:21:31;8.77;;;2.83;;
14611;SDS011;7392;52.078;11.650;2023-02-01T10:27:16;6.70;;;2.40;;
14611;SDS011;7392;52.078;11.650;2023-02-01T10:29:47;14.53;;;2.83;;
14611;SDS011;7392;52.078;11.650;2023-02-01T10:32:23;11.17;;;2.87;;
14611;SDS011;7392;52.078;11.650;2023-02-01T10:34:57;6.97;;;2.37;;
14611;SDS011;7392;52.078;11.650;2023-02-01T10:37:27;7.87;;;2.40;;
14611;SDS011;7392;52.078;11.650;2023-02-01T10:39:59;9.90;;;2.50;;
14611;SDS011;7392;52.078;11.650;2023-02-01T10:42:29;7.67;;;2.43;;
14611;SDS011;7392;52.078;11.650;2023-02-01T10:44:59;9.77;;;3.07;;
14611;SDS011;7392;52.078;11.650;2023-02-01T10:47:30;8.27;;;2.40;;
14611;SDS011;7392;52.078;11.650;2023-02-01T10:50:01;12.10;;;2.97;;
14611;SDS011;7392;52.078;11.650;2023-02-01T10:52:42;10.53;;;3.10;;
14611;SDS011;7392;52.078;11.650;2023-02-01T10:55:26;10.50;;;3.60;;
14611;SDS011;7392;52.078;11.650;2023-02-01T10:57:56;13.53;;;3.10;;
14611;SDS011;7392;52.078;11.650;2023-02-01T11:00:25;10.27;;;3.07;;
14611;SDS011;7392;52.078;11.650;2023-02-01T11:02:54;8.53;;;2.50;;
14611;SDS011;7392;52.078;11.650;2023-02-01T11:05:23;15.30;;;3.57;;
14611;SDS011;7392;52.078;11.650;2023-02-01T11:07:53;14.90;;;2.80;;
14611;SDS011;7392;52.078;11.650;2023-02-01T11:10:35;13.03;;;3.13;;
14611;SDS011;7392;52.078;11.650;2023-02-01T11:13:04;13.90;;;3.07;;
14611;SDS011;7392;52.078;11.650;2023-02-01T11:15:32;10.87;;;3.17;;
14611;SDS011;7392;52.078;11.650;2023-02-01T11:18:18;11.67;;;2.40;;
14611;SDS011;7392;52.078;11.650;2023-02-01T11:20:47;10.73;;;3.20;;
14611;SDS011;7392;52.078;11.650;2023-02-01T11:23:19;11.17;;;2.87;;
14611;SDS011;7392;52.078;11.650;2023-02-01T11:25:51;10.17;;;2.80;;
14611;SDS011;7392;52.078;11.650;2023-02-01T11:28:23;7.97;;;2.87;;
14611;SDS011;7392;52.078;11.650;2023-02-01T11:30:53;9.43;;;2.57;;
14611;SDS011;7392;52.078;11.650;2023-02-01T11:33:25;14.17;;;2.90;;
14611;SDS011;7392;52.078;11.650;2023-02-01T11:35:57;11.13;;;2.80;;
14611;SDS011;7392;52.078;11.650;2023-02-01T11:38:27;9.17;;;2.80;;
14611;SDS011;7392;52.078;11.650;2023-02-01T11:41:10;9.60;;;3.23;;
14611;SDS011;7392;52.078;11.650;2023-02-01T11:43:49;15.03;;;2.90;;
14611;SDS011;7392;52.078;11.650;2023-02-01T11:46:19;9.07;;;2.93;;
14611;SDS011;7392;52.078;11.650;2023-02-01T11:48:53;13.13;;;3.23;;
14611;SDS011;7392;52.078;11.650;2023-02-01T11:51:27;8.30;;;2.70;;
14611;SDS011;7392;52.078;11.650;2023-02-01T11:54:07;13.27;;;3.40;;
14611;SDS011;7392;52.078;11.650;2023-02-01T11:56:50;14.10;;;3.13;;
14611;SDS011;7392;52.078;11.650;2023-02-01T11:59:35;10.97;;;2.80;;
14611;SDS011;7392;52.078;11.650;2023-02-01T12:02:30;9.73;;;2.87;;
14611;SDS011;7392;52.078;11.650;2023-02-01T12:05:25;9.07;;;2.53;;
14611;SDS011;7392;52.078;11.650;2023-02-01T12:08:02;9.43;;;2.70;;
14611;SDS011;7392;52.078;11.650;2023-02-01T12:10:47;8.10;;;2.20;;
14611;SDS011;7392;52.078;11.650;2023-02-01T12:13:29;12.30;;;3.10;;
14611;SDS011;7392;52.078;11.650;2023-02-01T12:16:09;9.37;;;2.93;;
14611;SDS011;7392;52.078;11.650;2023-02-01T12:21:51;10.87;;;2.50;;
14611;SDS011;7392;52.078;11.650;2023-02-01T12:24:39;9.60;;;2.87;;
14611;SDS011;7392;52.078;11.650;2023-02-01T12:27:23;8.80;;;2.40;;
14611;SDS011;7392;52.078;11.650;2023-02-01T12:30:07;7.20;;;2.67;;
14611;SDS011;7392;52.078;11.650;2023-02-01T12:32:52;14.33;;;3.03;;
14611;SDS011;7392;52.078;11.650;2023-02-01T12:35:33;12.13;;;3.13;;
14611;SDS011;7392;52.078;11.650;2023-02-01T12:38:17;12.20;;;2.97;;
14611;SDS011;7392;52.078;11.650;2023-02-01T12:41:01;13.03;;;3.00;;
14611;SDS011;7392;52.078;11.650;2023-02-01T12:43:38;11.00;;;2.50;;
14611;SDS011;7392;52.078;11.650;2023-02-01T12:46:13;8.77;;;2.57;;
14611;SDS011;7392;52.078;11.650;2023-02-01T12:48:48;14.60;;;3.50;;
14611;SDS011;7392;52.078;11.650;2023-02-01T12:51:23;9.13;;;2.47;;
14611;SDS011;7392;52.078;11.650;2023-02-01T12:53:56;14.00;;;2.60;;
14611;SDS011;7392;52.078;11.650;2023-02-01T12:56:29;12.87;;;3.07;;
14611;SDS011;7392;52.078;11.650;2023-02-01T12:59:03;6.70;;;2.20;;
14611;SDS011;7392;52.078;11.650;2023-02-01T13:01:39;8.47;;;2.60;;
14611;SDS011;7392;52.078;11.650;2023-02-01T13:04:14;9.07;;;2.70;;
14611;SDS011;7392;52.078;11.650;2023-02-01T13:06:47;14.40;;;3.00;;
14611;SDS011;7392;52.078;11.650;2023-02-01T13:09:22;9.53;;;2.43;;
14611;SDS011;7392;52.078;11.650;2023-02-01T13:11:54;9.40;;;2.47;;
14611;SDS011;7392;52.078;11.650;2023-02-01T13:14:28;8.10;;;2.30;;
14611;SDS011;7392;52.078;11.650;2023-02-01T13:17:01;8.40;;;2.70;;
14611;SDS011;7392;52.078;11.650;2023-02-01T13:19:34;11.30;;;2.53;;
14611;SDS011;7392;52.078;11.650;2023-02-01T13:22:10;10.87;;;3.13;;
14611;SDS011;7392;52.078;11.650;2023-02-01T13:24:43;8.07;;;2.80;;
14611;SDS011;7392;52.078;11.650;2023-02-01T13:27:14;9.57;;;2.77;;
14611;SDS011;7392;52.078;11.650;2023-02-01T13:29:47;9.03;;;2.47;;
14611;SDS011;7392;52.078;11.650;2023-02-01T13:32:29;8.33;;;2.60;;
14611;SDS011;7392;52.078;11.650;2023-02-01T13:35:50;12.07;;;3.43;;
14611;SDS011;7392;52.078;11.650;2023-02-01T13:41:40;8.00;;;2.53;;
14611;SDS011;7392;52.078;11.650;2023-02-01T13:44:23;10.57;;;2.37;;
14611;SDS011;7392;52.078;11.650;2023-02-01T13:46:56;11.23;;;3.13;;
14611;SDS011;7392;52.078;11.650;2023-02-01T13:49:31;13.30;;;2.97;;
14611;SDS011;7392;52.078;11.650;2023-02-01T13:52:05;11.70;;;3.20;;
14611;SDS011;7392;52.078;11.650;2023-02-01T13:54:34;6.33;;;2.53;;
14611;SDS011;7392;52.078;11.650;2023-02-01T13:57:15;12.70;;;2.90;;
14611;SDS011;7392;52.078;11.650;2023-02-01T14:00:07;8.83;;;2.37;;
14611;SDS011;7392;52.078;11.650;2023-02-01T14:02:45;3.87;;;1.77;;
14611;SDS011;7392;52.078;11.650;2023-02-01T14:08:23;8.97;;;2.30;;
14611;SDS011;7392;52.078;11.650;2023-02-01T14:11:04;6.50;;;2.20;;
14611;SDS011;7392;52.078;11.650;2023-02-01T14:13:33;7.23;;;2.17;;
14611;SDS011;7392;52.078;11.650;2023-02-01T14:16:13;7.83;;;2.33;;
14611;SDS011;7392;52.078;11.650;2023-02-01T14:18:49;7.97;;;2.93;;
14611;SDS011;7392;52.078;11.650;2023-02-01T14:21:27;7.07;;;2.23;;
14611;SDS011;7392;52.078;11.650;2023-02-01T14:24:00;7.07;;;2.47;;
14611;SDS011;7392;52.078;11.650;2023-02-01T14:29:25;9.57;;;2.70;;
14611;SDS011;7392;52.078;11.650;2023-02-01T14:32:01;6.07;;;2.13;;
14611;SDS011;7392;52.078;11.650;2023-02-01T14:34:39;9.30;;;2.60;;
14611;SDS011;7392;52.078;11.650;2023-02-01T14:37:28;7.30;;;2.57;;
14611;SDS011;7392;52.078;11.650;2023-02-01T14:39:59;4.27;;;2.20;;
14611;SDS011;7392;52.078;11.650;2023-02-01T14:42:29;6.97;;;2.20;;
14611;SDS011;7392;52.078;11.650;2023-02-01T14:51:11;4.27;;;1.60;;
14611;SDS011;7392;52.078;11.650;2023-02-01T14:53:42;5.67;;;1.70;;
14611;SDS011;7392;52.078;11.650;2023-02-01T14:56:12;3.07;;;1.50;;
14611;SDS011;7392;52.078;11.650;2023-02-01T14:58:48;2.53;;;1.47;;
14611;SDS011;7392;52.078;11.650;2023-02-01T15:01:23;2.03;;;1.40;;
14611;SDS011;7392;52.078;11.650;2023-02-01T15:03:55;6.77;;;1.67;;
14611;SDS011;7392;52.078;11.650;2023-02-01T15:06:29;2.33;;;1.33;;
14611;SDS011;7392;52.078;11.650;2023-02-01T15:09:00;3.60;;;1.40;;
14611;SDS011;7392;52.078;11.650;2023-02-01T15:11:31;2.57;;;1.30;;
14611;SDS011;7392;52.078;11.650;2023-02-01T15:13:59;2.57;;;1.10;;
14611;SDS011;7392;52.078;11.650;2023-02-01T15:16:27;1.93;;;1.30;;
14611;SDS011;7392;52.078;11.650;2023-02-01T15:19:07;3.60;;;1.20;;
14611;SDS011;7392;52.078;11.650;2023-02-01T15:21:44;2.70;;;1.20;;
14611;SDS011;7392;52.078;11.650;2023-02-01T15:24:14;1.50;;;1.10;;
14611;SDS011;7392;52.078;11.650;2023-02-01T15:26:46;2.47;;;0.90;;
14611;SDS011;7392;52.078;11.650;2023-02-01T15:29:14;2.57;;;1.00;;
14611;SDS011;7392;52.078;11.650;2023-02-01T15:31:44;2.03;;;0.97;;
14611;SDS011;7392;52.078;11.650;2023-02-01T15:34:15;2.17;;;0.93;;
14611;SDS011;7392;52.078;11.650;2023-02-01T15:36:43;0.90;;;0.80;;
14611;SDS011;7392;52.078;11.650;2023-02-01T15:39:27;0.90;;;0.50;;